Terminal Aerodrome Forecast
Issued by NWS

Home | Current Version | Previous Version | Text Only | Print | Product List | Glossary On
Versions: 1 2 3 4 5 6 7 8 9 10 11 12 13 14
733
FTUS42 KMLB 221721
TAFSUA
TAF
KSUA 221721Z 2218/2318 12012G18KT P6SM VCSH SCT025 BKN040 BKN300
     FM222100 12011KT P6SM SCT030 SCT050 BKN250
     FM231600 14013KT P6SM SCT025 BKN100=

USA.gov is the U.S. government's official web portal to all federal, state and local government web resources and services.